sensor_id;sensor_type;location;lat;lon;timestamp;temperature;humidity
42019;DHT22;27703;51.980;5.848;2023-07-09T00:00:33;25.20;90.60
42019;DHT22;27703;51.980;5.848;2023-07-09T00:02:58;25.20;90.70
42019;DHT22;27703;51.980;5.848;2023-07-09T00:05:24;25.20;90.70
42019;DHT22;27703;51.980;5.848;2023-07-09T00:07:50;25.10;90.80
42019;DHT22;27703;51.980;5.848;2023-07-09T00:10:20;25.10;90.70
42019;DHT22;27703;51.980;5.848;2023-07-09T00:12:46;25.20;90.70
42019;DHT22;27703;51.980;5.848;2023-07-09T00:15:14;25.20;90.70
42019;DHT22;27703;51.980;5.848;2023-07-09T00:17:44;25.20;90.70
42019;DHT22;27703;51.980;5.848;2023-07-09T00:20:13;25.20;90.80
42019;DHT22;27703;51.980;5.848;2023-07-09T00:22:41;25.20;90.80
42019;DHT22;27703;51.980;5.848;2023-07-09T00:25:10;25.20;90.80
42019;DHT22;27703;51.980;5.848;2023-07-09T00:27:42;25.20;90.80
42019;DHT22;27703;51.980;5.848;2023-07-09T00:30:15;25.20;91.20
42019;DHT22;27703;51.980;5.848;2023-07-09T00:32:41;25.20;90.90
42019;DHT22;27703;51.980;5.848;2023-07-09T00:35:10;25.10;91.00
42019;DHT22;27703;51.980;5.848;2023-07-09T00:37:37;25.10;91.00
42019;DHT22;27703;51.980;5.848;2023-07-09T00:40:03;25.10;91.00
42019;DHT22;27703;51.980;5.848;2023-07-09T00:42:30;25.10;91.00
42019;DHT22;27703;51.980;5.848;2023-07-09T00:44:56;25.00;91.00
42019;DHT22;27703;51.980;5.848;2023-07-09T00:47:42;25.00;91.10
42019;DHT22;27703;51.980;5.848;2023-07-09T00:50:26;25.00;91.20
42019;DHT22;27703;51.980;5.848;2023-07-09T00:52:59;24.90;91.40
42019;DHT22;27703;51.980;5.848;2023-07-09T00:55:30;24.90;91.40
42019;DHT22;27703;51.980;5.848;2023-07-09T00:58:01;24.90;91.40
42019;DHT22;27703;51.980;5.848;2023-07-09T01:00:36;24.80;91.40
42019;DHT22;27703;51.980;5.848;2023-07-09T01:03:21;24.80;91.50
42019;DHT22;27703;51.980;5.848;2023-07-09T01:05:49;24.80;91.40
42019;DHT22;27703;51.980;5.848;2023-07-09T01:08:17;24.90;91.30
42019;DHT22;27703;51.980;5.848;2023-07-09T01:10:43;24.90;91.20
42019;DHT22;27703;51.980;5.848;2023-07-09T01:13:09;25.00;91.10
42019;DHT22;27703;51.980;5.848;2023-07-09T01:15:36;25.00;91.00
42019;DHT22;27703;51.980;5.848;2023-07-09T01:18:04;25.00;90.90
42019;DHT22;27703;51.980;5.848;2023-07-09T01:20:30;25.10;90.80
42019;DHT22;27703;51.980;5.848;2023-07-09T01:22:56;25.10;90.80
42019;DHT22;27703;51.980;5.848;2023-07-09T01:25:23;25.10;90.90
42019;DHT22;27703;51.980;5.848;2023-07-09T01:27:49;25.10;90.90
42019;DHT22;27703;51.980;5.848;2023-07-09T01:30:22;25.00;91.00
42019;DHT22;27703;51.980;5.848;2023-07-09T01:32:48;25.00;91.20
42019;DHT22;27703;51.980;5.848;2023-07-09T01:35:16;24.90;91.50
42019;DHT22;27703;51.980;5.848;2023-07-09T01:37:43;24.80;91.30
42019;DHT22;27703;51.980;5.848;2023-07-09T01:40:12;24.80;91.40
42019;DHT22;27703;51.980;5.848;2023-07-09T01:42:38;24.80;91.50
42019;DHT22;27703;51.980;5.848;2023-07-09T01:45:08;24.70;91.60
42019;DHT22;27703;51.980;5.848;2023-07-09T01:47:36;24.60;91.80
42019;DHT22;27703;51.980;5.848;2023-07-09T01:50:03;24.50;91.80
42019;DHT22;27703;51.980;5.848;2023-07-09T01:52:30;24.50;91.80
42019;DHT22;27703;51.980;5.848;2023-07-09T01:54:57;24.50;91.90
42019;DHT22;27703;51.980;5.848;2023-07-09T01:57:28;24.40;92.00
42019;DHT22;27703;51.980;5.848;2023-07-09T02:00:04;24.40;92.10
42019;DHT22;27703;51.980;5.848;2023-07-09T02:02:31;24.40;92.20
42019;DHT22;27703;51.980;5.848;2023-07-09T02:04:58;24.30;92.20
42019;DHT22;27703;51.980;5.848;2023-07-09T02:07:24;24.30;92.30
42019;DHT22;27703;51.980;5.848;2023-07-09T02:09:50;24.20;92.30
42019;DHT22;27703;51.980;5.848;2023-07-09T02:12:17;24.20;92.40
42019;DHT22;27703;51.980;5.848;2023-07-09T02:14:44;24.10;92.50
42019;DHT22;27703;51.980;5.848;2023-07-09T02:17:11;24.10;92.60
42019;DHT22;27703;51.980;5.848;2023-07-09T02:19:37;24.00;92.60
42019;DHT22;27703;51.980;5.848;2023-07-09T02:22:03;24.00;92.90
42019;DHT22;27703;51.980;5.848;2023-07-09T02:24:29;23.90;92.70
42019;DHT22;27703;51.980;5.848;2023-07-09T02:26:55;23.90;92.80
42019;DHT22;27703;51.980;5.848;2023-07-09T02:29:22;23.90;92.80
42019;DHT22;27703;51.980;5.848;2023-07-09T02:31:49;23.90;92.80
42019;DHT22;27703;51.980;5.848;2023-07-09T02:34:15;23.80;92.80
42019;DHT22;27703;51.980;5.848;2023-07-09T02:36:41;23.80;92.90
42019;DHT22;27703;51.980;5.848;2023-07-09T02:39:13;23.80;92.90
42019;DHT22;27703;51.980;5.848;2023-07-09T02:41:39;23.70;93.00
42019;DHT22;27703;51.980;5.848;2023-07-09T02:44:05;23.70;93.00
42019;DHT22;27703;51.980;5.848;2023-07-09T02:46:31;23.60;93.00
42019;DHT22;27703;51.980;5.848;2023-07-09T02:48:57;23.60;93.10
42019;DHT22;27703;51.980;5.848;2023-07-09T02:51:23;23.60;93.10
42019;DHT22;27703;51.980;5.848;2023-07-09T02:53:49;23.60;93.20
42019;DHT22;27703;51.980;5.848;2023-07-09T02:56:15;23.60;93.20
42019;DHT22;27703;51.980;5.848;2023-07-09T02:58:40;23.60;93.20
42019;DHT22;27703;51.980;5.848;2023-07-09T03:01:06;23.50;93.20
42019;DHT22;27703;51.980;5.848;2023-07-09T03:03:31;23.50;93.30
42019;DHT22;27703;51.980;5.848;2023-07-09T03:05:57;23.50;93.40
42019;DHT22;27703;51.980;5.848;2023-07-09T03:08:23;23.40;93.40
42019;DHT22;27703;51.980;5.848;2023-07-09T03:10:48;23.40;93.50
42019;DHT22;27703;51.980;5.848;2023-07-09T03:13:14;23.40;93.60
42019;DHT22;27703;51.980;5.848;2023-07-09T03:15:40;23.30;93.70
42019;DHT22;27703;51.980;5.848;2023-07-09T03:18:05;23.30;93.70
42019;DHT22;27703;51.980;5.848;2023-07-09T03:20:31;23.20;93.80
42019;DHT22;27703;51.980;5.848;2023-07-09T03:22:57;23.30;93.90
42019;DHT22;27703;51.980;5.848;2023-07-09T03:25:23;23.30;93.90
42019;DHT22;27703;51.980;5.848;2023-07-09T03:27:48;23.30;93.90
42019;DHT22;27703;51.980;5.848;2023-07-09T03:30:14;23.30;93.90
42019;DHT22;27703;51.980;5.848;2023-07-09T03:32:40;23.30;93.90
42019;DHT22;27703;51.980;5.848;2023-07-09T03:35:06;23.30;94.00
42019;DHT22;27703;51.980;5.848;2023-07-09T03:37:32;23.30;94.30
42019;DHT22;27703;51.980;5.848;2023-07-09T03:39:58;23.20;94.10
42019;DHT22;27703;51.980;5.848;2023-07-09T03:42:23;23.20;94.40
42019;DHT22;27703;51.980;5.848;2023-07-09T03:44:49;23.10;94.20
42019;DHT22;27703;51.980;5.848;2023-07-09T03:47:14;23.20;94.20
42019;DHT22;27703;51.980;5.848;2023-07-09T03:49:40;23.20;94.20
42019;DHT22;27703;51.980;5.848;2023-07-09T03:52:07;23.20;94.10
42019;DHT22;27703;51.980;5.848;2023-07-09T03:54:33;23.20;94.10
42019;DHT22;27703;51.980;5.848;2023-07-09T03:56:58;23.20;94.10
42019;DHT22;27703;51.980;5.848;2023-07-09T03:59:24;23.30;94.20
42019;DHT22;27703;51.980;5.848;2023-07-09T04:01:50;23.30;94.20
42019;DHT22;27703;51.980;5.848;2023-07-09T04:04:15;23.30;94.20
42019;DHT22;27703;51.980;5.848;2023-07-09T04:06:45;23.20;94.20
42019;DHT22;27703;51.980;5.848;2023-07-09T04:09:11;23.20;94.30
42019;DHT22;27703;51.980;5.848;2023-07-09T04:11:37;23.20;94.40
42019;DHT22;27703;51.980;5.848;2023-07-09T04:14:02;23.20;94.50
42019;DHT22;27703;51.980;5.848;2023-07-09T04:16:28;23.10;94.60
42019;DHT22;27703;51.980;5.848;2023-07-09T04:18:53;23.10;94.60
42019;DHT22;27703;51.980;5.848;2023-07-09T04:21:19;23.10;94.70
42019;DHT22;27703;51.980;5.848;2023-07-09T04:23:45;23.10;94.80
42019;DHT22;27703;51.980;5.848;2023-07-09T04:26:14;23.10;94.90
42019;DHT22;27703;51.980;5.848;2023-07-09T04:28:39;23.10;95.00
42019;DHT22;27703;51.980;5.848;2023-07-09T04:31:05;23.00;95.10
42019;DHT22;27703;51.980;5.848;2023-07-09T04:33:31;23.10;95.20
42019;DHT22;27703;51.980;5.848;2023-07-09T04:35:57;23.10;95.20
42019;DHT22;27703;51.980;5.848;2023-07-09T04:38:23;23.20;95.20
42019;DHT22;27703;51.980;5.848;2023-07-09T04:40:49;23.20;95.10
42019;DHT22;27703;51.980;5.848;2023-07-09T04:43:14;23.30;95.10
42019;DHT22;27703;51.980;5.848;2023-07-09T04:45:40;23.40;95.10
42019;DHT22;27703;51.980;5.848;2023-07-09T04:48:06;23.40;95.10
42019;DHT22;27703;51.980;5.848;2023-07-09T04:50:32;23.40;95.20
42019;DHT22;27703;51.980;5.848;2023-07-09T04:52:59;23.40;95.30
42019;DHT22;27703;51.980;5.848;2023-07-09T04:55:25;23.50;95.30
42019;DHT22;27703;51.980;5.848;2023-07-09T04:57:52;23.50;95.30
42019;DHT22;27703;51.980;5.848;2023-07-09T05:00:18;23.50;95.30
42019;DHT22;27703;51.980;5.848;2023-07-09T05:02:44;23.50;95.40
42019;DHT22;27703;51.980;5.848;2023-07-09T05:05:09;23.60;95.40
42019;DHT22;27703;51.980;5.848;2023-07-09T05:07:37;23.50;95.50
42019;DHT22;27703;51.980;5.848;2023-07-09T05:10:03;23.60;95.60
42019;DHT22;27703;51.980;5.848;2023-07-09T05:12:28;23.60;95.70
42019;DHT22;27703;51.980;5.848;2023-07-09T05:14:55;23.60;95.80
42019;DHT22;27703;51.980;5.848;2023-07-09T05:17:22;23.60;95.80
42019;DHT22;27703;51.980;5.848;2023-07-09T05:19:49;23.60;95.90
42019;DHT22;27703;51.980;5.848;2023-07-09T05:22:15;23.60;95.90
42019;DHT22;27703;51.980;5.848;2023-07-09T05:24:40;23.70;96.00
42019;DHT22;27703;51.980;5.848;2023-07-09T05:27:06;23.70;96.00
42019;DHT22;27703;51.980;5.848;2023-07-09T05:29:32;23.70;96.00
42019;DHT22;27703;51.980;5.848;2023-07-09T05:31:57;23.70;96.00
42019;DHT22;27703;51.980;5.848;2023-07-09T05:34:23;23.70;96.10
42019;DHT22;27703;51.980;5.848;2023-07-09T05:36:49;23.70;96.20
42019;DHT22;27703;51.980;5.848;2023-07-09T05:39:14;23.70;96.20
42019;DHT22;27703;51.980;5.848;2023-07-09T05:41:41;23.80;96.30
42019;DHT22;27703;51.980;5.848;2023-07-09T05:44:07;23.80;96.30
42019;DHT22;27703;51.980;5.848;2023-07-09T05:46:36;23.90;96.40
42019;DHT22;27703;51.980;5.848;2023-07-09T05:49:03;23.90;96.40
42019;DHT22;27703;51.980;5.848;2023-07-09T05:51:29;24.00;96.40
42019;DHT22;27703;51.980;5.848;2023-07-09T05:53:54;24.00;96.40
42019;DHT22;27703;51.980;5.848;2023-07-09T05:56:20;24.10;96.40
42019;DHT22;27703;51.980;5.848;2023-07-09T05:58:45;24.10;96.40
42019;DHT22;27703;51.980;5.848;2023-07-09T06:01:11;24.20;96.50
42019;DHT22;27703;51.980;5.848;2023-07-09T06:03:37;24.20;96.50
42019;DHT22;27703;51.980;5.848;2023-07-09T06:06:03;24.30;96.50
42019;DHT22;27703;51.980;5.848;2023-07-09T06:08:29;24.30;96.40
42019;DHT22;27703;51.980;5.848;2023-07-09T06:10:56;24.40;96.20
42019;DHT22;27703;51.980;5.848;2023-07-09T06:13:22;24.50;96.20
42019;DHT22;27703;51.980;5.848;2023-07-09T06:15:49;24.50;96.20
42019;DHT22;27703;51.980;5.848;2023-07-09T06:18:15;24.60;96.20
42019;DHT22;27703;51.980;5.848;2023-07-09T06:20:45;24.60;96.10
42019;DHT22;27703;51.980;5.848;2023-07-09T06:23:10;24.70;96.10
42019;DHT22;27703;51.980;5.848;2023-07-09T06:25:38;24.70;96.10
42019;DHT22;27703;51.980;5.848;2023-07-09T06:28:03;24.80;96.00
42019;DHT22;27703;51.980;5.848;2023-07-09T06:30:29;24.80;96.00
42019;DHT22;27703;51.980;5.848;2023-07-09T06:32:54;24.90;95.90
42019;DHT22;27703;51.980;5.848;2023-07-09T06:35:20;25.00;95.90
42019;DHT22;27703;51.980;5.848;2023-07-09T06:37:46;25.00;95.80
42019;DHT22;27703;51.980;5.848;2023-07-09T06:40:11;25.10;95.70
42019;DHT22;27703;51.980;5.848;2023-07-09T06:42:38;25.20;95.70
42019;DHT22;27703;51.980;5.848;2023-07-09T06:45:04;25.20;95.60
42019;DHT22;27703;51.980;5.848;2023-07-09T06:47:30;25.30;95.70
42019;DHT22;27703;51.980;5.848;2023-07-09T06:49:55;25.30;95.60
42019;DHT22;27703;51.980;5.848;2023-07-09T06:52:21;25.40;95.50
42019;DHT22;27703;51.980;5.848;2023-07-09T06:54:47;25.40;95.50
42019;DHT22;27703;51.980;5.848;2023-07-09T06:57:12;25.50;95.50
42019;DHT22;27703;51.980;5.848;2023-07-09T06:59:38;25.50;95.50
42019;DHT22;27703;51.980;5.848;2023-07-09T07:02:03;25.60;95.50
42019;DHT22;27703;51.980;5.848;2023-07-09T07:04:29;25.70;95.40
42019;DHT22;27703;51.980;5.848;2023-07-09T07:06:55;25.80;95.30
42019;DHT22;27703;51.980;5.848;2023-07-09T07:09:22;25.80;95.20
42019;DHT22;27703;51.980;5.848;2023-07-09T07:11:48;25.90;95.20
42019;DHT22;27703;51.980;5.848;2023-07-09T07:14:14;25.90;95.20
42019;DHT22;27703;51.980;5.848;2023-07-09T07:16:40;26.00;95.10
42019;DHT22;27703;51.980;5.848;2023-07-09T07:19:05;26.20;95.10
42019;DHT22;27703;51.980;5.848;2023-07-09T07:21:31;26.20;95.00
42019;DHT22;27703;51.980;5.848;2023-07-09T07:23:56;26.30;95.00
42019;DHT22;27703;51.980;5.848;2023-07-09T07:26:22;26.40;95.00
42019;DHT22;27703;51.980;5.848;2023-07-09T07:28:48;26.40;95.00
42019;DHT22;27703;51.980;5.848;2023-07-09T07:31:15;26.50;95.00
42019;DHT22;27703;51.980;5.848;2023-07-09T07:33:41;26.60;95.00
42019;DHT22;27703;51.980;5.848;2023-07-09T07:36:08;26.70;94.90
42019;DHT22;27703;51.980;5.848;2023-07-09T07:38:34;26.90;94.80
42019;DHT22;27703;51.980;5.848;2023-07-09T07:41:00;27.00;94.80
42019;DHT22;27703;51.980;5.848;2023-07-09T07:43:26;27.00;94.80
42019;DHT22;27703;51.980;5.848;2023-07-09T07:45:52;27.10;94.70
42019;DHT22;27703;51.980;5.848;2023-07-09T07:48:17;27.30;94.60
42019;DHT22;27703;51.980;5.848;2023-07-09T07:50:43;27.40;94.50
42019;DHT22;27703;51.980;5.848;2023-07-09T07:53:11;27.50;94.30
42019;DHT22;27703;51.980;5.848;2023-07-09T07:55:36;27.60;94.20
42019;DHT22;27703;51.980;5.848;2023-07-09T07:58:03;27.60;94.20
42019;DHT22;27703;51.980;5.848;2023-07-09T08:00:30;27.70;94.10
42019;DHT22;27703;51.980;5.848;2023-07-09T08:02:55;27.80;94.00
42019;DHT22;27703;51.980;5.848;2023-07-09T08:05:21;27.90;93.80
42019;DHT22;27703;51.980;5.848;2023-07-09T08:07:47;27.90;93.70
42019;DHT22;27703;51.980;5.848;2023-07-09T08:10:12;27.90;93.60
42019;DHT22;27703;51.980;5.848;2023-07-09T08:12:38;28.00;93.60
42019;DHT22;27703;51.980;5.848;2023-07-09T08:15:04;28.10;93.60
42019;DHT22;27703;51.980;5.848;2023-07-09T08:17:31;28.20;93.50
42019;DHT22;27703;51.980;5.848;2023-07-09T08:19:57;28.30;93.40
42019;DHT22;27703;51.980;5.848;2023-07-09T08:22:23;28.40;93.40
42019;DHT22;27703;51.980;5.848;2023-07-09T08:24:49;28.50;93.30
42019;DHT22;27703;51.980;5.848;2023-07-09T08:27:15;28.60;93.20
42019;DHT22;27703;51.980;5.848;2023-07-09T08:29:41;28.70;93.00
42019;DHT22;27703;51.980;5.848;2023-07-09T08:32:08;28.70;92.90
42019;DHT22;27703;51.980;5.848;2023-07-09T08:34:34;28.80;92.70
42019;DHT22;27703;51.980;5.848;2023-07-09T08:37:00;28.90;92.70
42019;DHT22;27703;51.980;5.848;2023-07-09T08:39:25;29.00;92.60
42019;DHT22;27703;51.980;5.848;2023-07-09T08:42:02;29.10;92.60
42019;DHT22;27703;51.980;5.848;2023-07-09T08:44:57;29.20;92.50
42019;DHT22;27703;51.980;5.848;2023-07-09T08:47:46;29.30;92.50
42019;DHT22;27703;51.980;5.848;2023-07-09T08:50:24;29.40;92.40
42019;DHT22;27703;51.980;5.848;2023-07-09T08:52:51;29.50;92.30
42019;DHT22;27703;51.980;5.848;2023-07-09T08:55:21;29.60;92.40
42019;DHT22;27703;51.980;5.848;2023-07-09T08:57:55;29.70;92.10
42019;DHT22;27703;51.980;5.848;2023-07-09T09:00:29;29.70;92.00
42019;DHT22;27703;51.980;5.848;2023-07-09T09:03:01;29.80;91.70
42019;DHT22;27703;51.980;5.848;2023-07-09T09:05:31;29.80;91.60
42019;DHT22;27703;51.980;5.848;2023-07-09T09:08:04;30.00;91.60
42019;DHT22;27703;51.980;5.848;2023-07-09T09:10:43;30.00;91.40
42019;DHT22;27703;51.980;5.848;2023-07-09T09:13:12;30.10;91.30
42019;DHT22;27703;51.980;5.848;2023-07-09T09:15:44;30.20;91.20
42019;DHT22;27703;51.980;5.848;2023-07-09T09:18:23;30.30;91.00
42019;DHT22;27703;51.980;5.848;2023-07-09T09:23:38;30.50;90.90
42019;DHT22;27703;51.980;5.848;2023-07-09T09:26:14;30.60;90.90
42019;DHT22;27703;51.980;5.848;2023-07-09T09:28:40;30.60;90.70
42019;DHT22;27703;51.980;5.848;2023-07-09T09:31:10;30.80;90.70
42019;DHT22;27703;51.980;5.848;2023-07-09T09:33:40;30.80;90.60
42019;DHT22;27703;51.980;5.848;2023-07-09T09:36:11;30.90;90.50
42019;DHT22;27703;51.980;5.848;2023-07-09T09:38:39;31.00;90.30
42019;DHT22;27703;51.980;5.848;2023-07-09T09:41:08;31.10;90.30
42019;DHT22;27703;51.980;5.848;2023-07-09T09:43:35;31.10;90.30
42019;DHT22;27703;51.980;5.848;2023-07-09T09:46:06;31.20;90.40
42019;DHT22;27703;51.980;5.848;2023-07-09T09:48:32;31.30;90.30
42019;DHT22;27703;51.980;5.848;2023-07-09T09:50:59;31.30;90.20
42019;DHT22;27703;51.980;5.848;2023-07-09T09:53:28;31.50;90.10
42019;DHT22;27703;51.980;5.848;2023-07-09T09:55:56;31.50;89.80
42019;DHT22;27703;51.980;5.848;2023-07-09T09:58:27;31.60;89.80
42019;DHT22;27703;51.980;5.848;2023-07-09T10:00:56;31.70;89.40
42019;DHT22;27703;51.980;5.848;2023-07-09T10:03:35;31.70;89.20
42019;DHT22;27703;51.980;5.848;2023-07-09T10:14:01;32.10;87.70
42019;DHT22;27703;51.980;5.848;2023-07-09T10:16:36;32.20;87.60
42019;DHT22;27703;51.980;5.848;2023-07-09T10:19:14;32.30;86.80
42019;DHT22;27703;51.980;5.848;2023-07-09T10:22:06;32.30;86.70
42019;DHT22;27703;51.980;5.848;2023-07-09T10:27:39;32.60;85.70
42019;DHT22;27703;51.980;5.848;2023-07-09T10:33:12;32.70;85.20
42019;DHT22;27703;51.980;5.848;2023-07-09T10:35:46;32.80;84.80
42019;DHT22;27703;51.980;5.848;2023-07-09T10:41:00;33.00;84.10
42019;DHT22;27703;51.980;5.848;2023-07-09T10:43:48;33.10;83.60
42019;DHT22;27703;51.980;5.848;2023-07-09T10:46:24;33.20;83.30
42019;DHT22;27703;51.980;5.848;2023-07-09T10:48:52;33.20;83.50
42019;DHT22;27703;51.980;5.848;2023-07-09T10:54:01;33.50;82.30
42019;DHT22;27703;51.980;5.848;2023-07-09T10:56:31;33.50;82.00
42019;DHT22;27703;51.980;5.848;2023-07-09T11:01:41;33.70;82.10
42019;DHT22;27703;51.980;5.848;2023-07-09T11:04:34;33.80;81.90
42019;DHT22;27703;51.980;5.848;2023-07-09T11:07:06;33.80;81.10
42019;DHT22;27703;51.980;5.848;2023-07-09T11:09:38;33.80;81.70
42019;DHT22;27703;51.980;5.848;2023-07-09T11:14:54;34.00;80.50
42019;DHT22;27703;51.980;5.848;2023-07-09T11:17:21;34.00;80.70
42019;DHT22;27703;51.980;5.848;2023-07-09T11:19:53;34.00;80.50
42019;DHT22;27703;51.980;5.848;2023-07-09T11:22:26;34.20;80.20
42019;DHT22;27703;51.980;5.848;2023-07-09T11:27:33;34.30;80.10
42019;DHT22;27703;51.980;5.848;2023-07-09T11:30:46;34.40;79.70
42019;DHT22;27703;51.980;5.848;2023-07-09T11:33:26;34.40;79.40
42019;DHT22;27703;51.980;5.848;2023-07-09T11:35:55;34.40;79.20
42019;DHT22;27703;51.980;5.848;2023-07-09T11:38:39;34.50;79.20
42019;DHT22;27703;51.980;5.848;2023-07-09T11:41:26;34.50;78.90
42019;DHT22;27703;51.980;5.848;2023-07-09T11:43:52;34.50;78.20
42019;DHT22;27703;51.980;5.848;2023-07-09T11:46:22;34.50;77.70
42019;DHT22;27703;51.980;5.848;2023-07-09T11:48:49;34.30;77.00
42019;DHT22;27703;51.980;5.848;2023-07-09T11:51:28;34.30;77.20
42019;DHT22;27703;51.980;5.848;2023-07-09T11:53:58;34.30;77.00
42019;DHT22;27703;51.980;5.848;2023-07-09T11:56:24;34.20;77.30
42019;DHT22;27703;51.980;5.848;2023-07-09T11:58:53;34.10;77.10
42019;DHT22;27703;51.980;5.848;2023-07-09T12:01:23;34.10;77.10
42019;DHT22;27703;51.980;5.848;2023-07-09T12:03:50;34.10;76.80
42019;DHT22;27703;51.980;5.848;2023-07-09T12:06:29;34.00;76.40
42019;DHT22;27703;51.980;5.848;2023-07-09T12:08:55;33.90;76.60
42019;DHT22;27703;51.980;5.848;2023-07-09T12:11:25;33.90;77.80
42019;DHT22;27703;51.980;5.848;2023-07-09T12:13:52;33.90;77.50
42019;DHT22;27703;51.980;5.848;2023-07-09T12:18:47;33.80;78.50
42019;DHT22;27703;51.980;5.848;2023-07-09T12:21:13;33.80;79.00
42019;DHT22;27703;51.980;5.848;2023-07-09T12:23:40;33.70;79.10
42019;DHT22;27703;51.980;5.848;2023-07-09T12:26:10;33.60;79.00
42019;DHT22;27703;51.980;5.848;2023-07-09T12:28:36;33.50;79.20
42019;DHT22;27703;51.980;5.848;2023-07-09T12:31:02;33.30;79.50
42019;DHT22;27703;51.980;5.848;2023-07-09T12:33:28;33.20;80.20
42019;DHT22;27703;51.980;5.848;2023-07-09T12:36:02;32.90;82.00
42019;DHT22;27703;51.980;5.848;2023-07-09T12:38:32;32.50;84.30
42019;DHT22;27703;51.980;5.848;2023-07-09T12:41:06;32.20;85.80
42019;DHT22;27703;51.980;5.848;2023-07-09T12:43:41;31.90;87.40
42019;DHT22;27703;51.980;5.848;2023-07-09T12:46:07;31.80;88.80
42019;DHT22;27703;51.980;5.848;2023-07-09T12:48:32;31.60;89.40
42019;DHT22;27703;51.980;5.848;2023-07-09T12:50:59;31.60;89.90
42019;DHT22;27703;51.980;5.848;2023-07-09T12:53:26;31.50;89.90
42019;DHT22;27703;51.980;5.848;2023-07-09T12:55:55;31.60;89.90
42019;DHT22;27703;51.980;5.848;2023-07-09T12:58:24;31.60;89.90
42019;DHT22;27703;51.980;5.848;2023-07-09T13:00:52;31.60;89.80
42019;DHT22;27703;51.980;5.848;2023-07-09T13:03:30;31.70;88.30
42019;DHT22;27703;51.980;5.848;2023-07-09T13:08:29;32.00;86.80
42019;DHT22;27703;51.980;5.848;2023-07-09T13:10:55;32.10;86.10
42019;DHT22;27703;51.980;5.848;2023-07-09T13:13:22;32.20;86.10
42019;DHT22;27703;51.980;5.848;2023-07-09T13:15:52;32.30;85.70
42019;DHT22;27703;51.980;5.848;2023-07-09T13:18:23;32.40;85.10
42019;DHT22;27703;51.980;5.848;2023-07-09T13:20:49;32.30;84.50
42019;DHT22;27703;51.980;5.848;2023-07-09T13:23:26;32.30;84.60
42019;DHT22;27703;51.980;5.848;2023-07-09T13:25:53;32.30;85.10
42019;DHT22;27703;51.980;5.848;2023-07-09T13:28:25;32.30;85.10
42019;DHT22;27703;51.980;5.848;2023-07-09T13:31:00;32.30;84.30
42019;DHT22;27703;51.980;5.848;2023-07-09T13:33:26;32.30;84.40
42019;DHT22;27703;51.980;5.848;2023-07-09T13:35:52;32.30;84.10
42019;DHT22;27703;51.980;5.848;2023-07-09T13:38:21;32.20;83.90
42019;DHT22;27703;51.980;5.848;2023-07-09T13:40:51;32.10;83.10
42019;DHT22;27703;51.980;5.848;2023-07-09T13:43:33;32.10;83.00
42019;DHT22;27703;51.980;5.848;2023-07-09T13:46:01;32.00;83.00
42019;DHT22;27703;51.980;5.848;2023-07-09T13:48:30;31.90;83.00
42019;DHT22;27703;51.980;5.848;2023-07-09T13:50:57;31.80;83.00
42019;DHT22;27703;51.980;5.848;2023-07-09T13:53:29;31.80;83.20
42019;DHT22;27703;51.980;5.848;2023-07-09T13:55:56;31.70;83.40
42019;DHT22;27703;51.980;5.848;2023-07-09T13:58:24;31.70;83.70
42019;DHT22;27703;51.980;5.848;2023-07-09T14:03:22;31.50;84.50
42019;DHT22;27703;51.980;5.848;2023-07-09T14:05:49;31.40;85.00
42019;DHT22;27703;51.980;5.848;2023-07-09T14:08:15;31.30;85.40
42019;DHT22;27703;51.980;5.848;2023-07-09T14:10:42;31.20;85.50
42019;DHT22;27703;51.980;5.848;2023-07-09T14:13:14;31.10;85.60
42019;DHT22;27703;51.980;5.848;2023-07-09T14:15:40;31.00;85.80
42019;DHT22;27703;51.980;5.848;2023-07-09T14:18:13;30.90;86.00
42019;DHT22;27703;51.980;5.848;2023-07-09T14:20:39;30.80;86.10
42019;DHT22;27703;51.980;5.848;2023-07-09T14:23:04;30.70;86.20
42019;DHT22;27703;51.980;5.848;2023-07-09T14:25:30;30.60;86.20
42019;DHT22;27703;51.980;5.848;2023-07-09T14:27:56;30.50;86.10
42019;DHT22;27703;51.980;5.848;2023-07-09T14:30:24;30.40;86.00
42019;DHT22;27703;51.980;5.848;2023-07-09T14:32:51;30.10;85.90
42019;DHT22;27703;51.980;5.848;2023-07-09T14:35:19;30.00;86.00
42019;DHT22;27703;51.980;5.848;2023-07-09T14:37:46;29.90;85.90
42019;DHT22;27703;51.980;5.848;2023-07-09T14:40:13;29.80;86.00
42019;DHT22;27703;51.980;5.848;2023-07-09T14:42:40;29.70;85.70
42019;DHT22;27703;51.980;5.848;2023-07-09T14:45:19;29.50;85.70
42019;DHT22;27703;51.980;5.848;2023-07-09T14:47:45;29.50;85.70
42019;DHT22;27703;51.980;5.848;2023-07-09T14:50:11;29.40;85.70
42019;DHT22;27703;51.980;5.848;2023-07-09T14:52:37;29.30;85.50
42019;DHT22;27703;51.980;5.848;2023-07-09T14:55:04;29.10;85.40
42019;DHT22;27703;51.980;5.848;2023-07-09T14:57:30;28.80;85.40
42019;DHT22;27703;51.980;5.848;2023-07-09T14:59:57;28.50;86.40
42019;DHT22;27703;51.980;5.848;2023-07-09T15:05:05;27.70;89.80
42019;DHT22;27703;51.980;5.848;2023-07-09T15:07:32;27.30;90.40
42019;DHT22;27703;51.980;5.848;2023-07-09T15:09:59;27.00;91.10
42019;DHT22;27703;51.980;5.848;2023-07-09T15:12:30;26.80;91.50
42019;DHT22;27703;51.980;5.848;2023-07-09T15:15:23;26.60;91.90
42019;DHT22;27703;51.980;5.848;2023-07-09T15:17:47;26.50;92.10
42019;DHT22;27703;51.980;5.848;2023-07-09T15:20:23;26.40;92.30
42019;DHT22;27703;51.980;5.848;2023-07-09T15:22:50;26.50;92.70
42019;DHT22;27703;51.980;5.848;2023-07-09T15:25:21;26.50;93.00
42019;DHT22;27703;51.980;5.848;2023-07-09T15:27:47;26.40;93.20
42019;DHT22;27703;51.980;5.848;2023-07-09T15:32:44;26.50;93.60
42019;DHT22;27703;51.980;5.848;2023-07-09T15:35:09;26.40;93.50
42019;DHT22;27703;51.980;5.848;2023-07-09T15:37:35;26.40;93.70
42019;DHT22;27703;51.980;5.848;2023-07-09T15:40:01;26.30;93.80
42019;DHT22;27703;51.980;5.848;2023-07-09T15:42:27;26.30;94.00
42019;DHT22;27703;51.980;5.848;2023-07-09T15:44:52;26.20;94.10
42019;DHT22;27703;51.980;5.848;2023-07-09T15:47:21;26.10;94.20
42019;DHT22;27703;51.980;5.848;2023-07-09T15:49:49;25.90;94.70
42019;DHT22;27703;51.980;5.848;2023-07-09T15:52:15;25.80;95.20
42019;DHT22;27703;51.980;5.848;2023-07-09T15:54:40;25.70;95.70
42019;DHT22;27703;51.980;5.848;2023-07-09T15:57:06;25.70;96.00
42019;DHT22;27703;51.980;5.848;2023-07-09T15:59:35;25.70;96.20
42019;DHT22;27703;51.980;5.848;2023-07-09T16:02:02;25.80;96.40
42019;DHT22;27703;51.980;5.848;2023-07-09T16:04:34;25.80;96.50
42019;DHT22;27703;51.980;5.848;2023-07-09T16:06:59;25.80;96.50
42019;DHT22;27703;51.980;5.848;2023-07-09T16:09:25;25.90;96.70
42019;DHT22;27703;51.980;5.848;2023-07-09T16:11:52;25.80;96.70
42019;DHT22;27703;51.980;5.848;2023-07-09T16:14:30;25.90;96.80
42019;DHT22;27703;51.980;5.848;2023-07-09T16:16:58;25.90;96.90
42019;DHT22;27703;51.980;5.848;2023-07-09T16:19:27;25.80;97.00